Time;durP1;ratioP1;P1;durP2;ratioP2;P2;SDS_P1;SDS_P2;PMS_P1;PMS_P2;Temp;Humidity;BMP_temperature;BMP_pressure;BME280_temperature;BME280_humidity;BME280_pressure;Samples;Min_cycle;Max_cycle;Signal;HPM_P1;HPM_P2
2022/03/09 00:00:20;;;;;;;12.25;7.92;;;;;;;5.37;55.52;99890.30;1652958;85;20989;-65
2022/03/09 00:02:48;;;;;;;12.85;8.33;;;;;;;5.44;55.52;99887.89;1679269;83;20962;-70
2022/03/09 00:05:15;;;;;;;11.68;7.67;;;;;;;5.56;55.13;99886.13;1704920;83;21103;-67
2022/03/09 00:07:42;;;;;;;13.90;7.95;;;;;;;5.59;54.89;99885.01;1675778;85;21028;-72
2022/03/09 00:10:09;;;;;;;11.80;8.30;;;;;;;5.56;55.00;99887.91;1692012;84;21246;-68
2022/03/09 00:12:37;;;;;;;12.37;7.87;;;;;;;5.34;55.38;99893.19;1695819;83;21066;-68
2022/03/09 00:15:05;;;;;;;11.90;8.23;;;;;;;5.44;55.72;99885.31;1672008;85;21034;-66
2022/03/09 00:17:34;;;;;;;12.03;7.42;;;;;;;5.13;56.60;99888.46;1675741;85;22428;-70
2022/03/09 00:20:01;;;;;;;11.08;7.30;;;;;;;5.03;56.85;99888.58;1692750;84;20992;-67
2022/03/09 00:22:30;;;;;;;11.43;7.85;;;;;;;5.06;56.99;99883.11;1698516;83;20969;-65
2022/03/09 00:24:58;;;;;;;11.48;7.45;;;;;;;5.35;56.21;99888.37;1690690;84;20959;-78
2022/03/09 00:27:26;;;;;;;14.07;7.97;;;;;;;5.10;56.73;99884.41;1704565;83;22394;-77
2022/03/09 00:29:54;;;;;;;14.40;8.38;;;;;;;5.07;56.57;99886.49;1691322;84;21712;-67
2022/03/09 00:32:22;;;;;;;12.65;8.33;;;;;;;4.99;56.80;99896.80;1690939;83;21081;-65
2022/03/09 00:34:49;;;;;;;12.40;8.00;;;;;;;5.02;57.08;99895.20;1705409;83;21817;-80
2022/03/09 00:37:17;;;;;;;11.28;7.53;;;;;;;5.00;56.78;99894.53;1674506;85;21331;-66
2022/03/09 00:39:44;;;;;;;12.75;7.72;;;;;;;5.16;56.74;99883.48;1686854;84;21269;-66
2022/03/09 00:42:12;;;;;;;10.20;6.62;;;;;;;5.01;56.66;99893.11;1704425;83;22676;-66
2022/03/09 00:44:40;;;;;;;11.97;6.78;;;;;;;4.94;57.08;99888.23;1705409;83;21564;-67
2022/03/09 00:47:07;;;;;;;12.90;8.25;;;;;;;5.07;56.97;99883.91;1697161;83;21201;-66
2022/03/09 00:49:35;;;;;;;13.38;8.15;;;;;;;5.16;56.57;99880.89;1721718;82;21014;-76
2022/03/09 00:52:03;;;;;;;15.23;8.90;;;;;;;5.17;56.52;99885.08;1704541;83;21166;-66
2022/03/09 00:54:31;;;;;;;16.93;9.05;;;;;;;5.02;56.85;99885.67;1722650;82;21117;-69
2022/03/09 00:56:58;;;;;;;16.15;10.35;;;;;;;5.03;57.26;99889.06;1702665;83;21637;-65
2022/03/09 00:59:25;;;;;;;17.67;10.43;;;;;;;5.09;57.25;99886.67;1727172;82;21134;-69
2022/03/09 01:01:53;;;;;;;16.02;10.23;;;;;;;5.09;57.07;99884.58;1705034;83;21062;-67
2022/03/09 01:04:20;;;;;;;16.48;10.20;;;;;;;5.01;57.65;99893.59;1727076;82;21136;-69
2022/03/09 01:06:48;;;;;;;16.82;10.78;;;;;;;5.04;57.76;99893.29;1707110;83;21013;-67
2022/03/09 01:09:15;;;;;;;14.43;10.43;;;;;;;5.18;57.20;99889.28;1669835;85;21036;-78
2022/03/09 01:11:43;;;;;;;19.25;11.35;;;;;;;5.09;56.68;99889.26;1724874;82;21128;-65
2022/03/09 01:14:11;;;;;;;14.70;10.55;;;;;;;4.80;57.80;99895.27;1708687;83;20966;-65
2022/03/09 01:16:39;;;;;;;17.45;11.20;;;;;;;4.79;58.23;99900.11;1680474;84;21092;-67
2022/03/09 01:19:08;;;;;;;17.15;10.55;;;;;;;4.82;58.34;99896.73;1700525;83;21032;-64
2022/03/09 01:21:37;;;;;;;13.88;9.53;;;;;;;4.92;57.70;99894.02;1724102;82;21051;-67
2022/03/09 01:24:06;;;;;;;15.23;10.45;;;;;;;4.88;57.38;99897.88;1709500;83;22245;-65
2022/03/09 01:26:34;;;;;;;14.80;10.32;;;;;;;4.84;57.08;99896.58;1729149;82;21040;-67
2022/03/09 01:29:01;;;;;;;16.45;10.15;;;;;;;4.91;57.22;99903.23;1708674;83;20972;-75
2022/03/09 01:31:29;;;;;;;14.95;10.55;;;;;;;4.85;56.90;99900.80;1678617;84;21017;-66
2022/03/09 01:33:56;;;;;;;16.30;10.90;;;;;;;4.78;57.14;99899.79;1709415;83;21110;-67
2022/03/09 01:36:23;;;;;;;21.57;12.10;;;;;;;4.70;57.26;99906.18;1727344;82;21245;-66
2022/03/09 01:38:51;;;;;;;16.00;10.88;;;;;;;4.72;56.70;99900.39;1708893;83;20936;-70
2022/03/09 01:41:18;;;;;;;15.68;11.00;;;;;;;4.54;56.29;99898.67;1706755;82;20989;-66
2022/03/09 01:44:06;;;;;;;16.20;11.10;;;;;;;4.43;56.72;99901.51;1728632;82;21085;-67
2022/03/09 01:46:34;;;;;;;15.43;10.32;;;;;;;4.19;56.80;99902.65;1728964;82;21045;-75
2022/03/09 01:49:01;;;;;;;17.30;10.28;;;;;;;4.06;57.74;99904.34;1728121;82;21240;-66
2022/03/09 01:51:28;;;;;;;17.12;11.50;;;;;;;4.08;58.55;99905.79;1728710;82;21040;-77
2022/03/09 01:53:56;;;;;;;16.93;10.40;;;;;;;4.08;59.37;99904.98;1728492;82;21629;-66
2022/03/09 01:56:24;;;;;;;15.18;10.00;;;;;;;4.22;59.80;99907.52;1728914;82;21065;-78
2022/03/09 01:58:51;;;;;;;14.47;10.03;;;;;;;4.29;60.17;99902.09;1728185;82;20980;-67
2022/03/09 02:01:19;;;;;;;14.63;10.58;;;;;;;4.08;61.05;99901.92;1658409;84;21833;-66
2022/03/09 02:03:46;;;;;;;14.18;9.23;;;;;;;3.98;62.26;99902.50;1709458;83;21452;-68
2022/03/09 02:06:13;;;;;;;15.80;10.25;;;;;;;3.96;63.06;99900.54;1717200;83;21117;-67
2022/03/09 02:11:31;;;;;;;15.08;9.05;;;;;;;4.24;61.29;99905.58;1716808;83;21129;-68
2022/03/09 02:14:00;;;;;;;14.55;8.73;;;;;;;3.92;61.65;99909.53;1711748;83;21128;-65
2022/03/09 02:16:29;;;;;;;15.48;9.38;;;;;;;3.86;62.33;99910.95;1708538;83;21011;-67
2022/03/09 02:19:01;;;;;;;13.55;8.68;;;;;;;3.62;64.89;99917.16;1716719;83;21604;-66
2022/03/09 02:21:29;;;;;;;12.98;8.78;;;;;;;3.65;65.05;99918.97;1717077;83;21638;-63
2022/03/09 02:23:56;;;;;;;14.23;9.25;;;;;;;3.73;64.68;99910.98;1716725;83;21102;-67
2022/03/09 02:26:24;;;;;;;15.03;8.93;;;;;;;3.74;64.76;99912.11;1716938;83;21262;-73
2022/03/09 02:28:52;;;;;;;13.43;8.85;;;;;;;3.61;64.94;99916.83;1716452;83;21027;-67
2022/03/09 02:31:19;;;;;;;11.88;7.65;;;;;;;3.71;65.84;99916.75;1715914;83;21081;-68
2022/03/09 02:33:46;;;;;;;14.78;8.55;;;;;;;3.68;66.31;99920.94;1717421;83;21459;-67
2022/03/09 02:36:13;;;;;;;12.63;8.43;;;;;;;3.61;66.24;99909.91;1716933;83;21047;-66
2022/03/09 02:38:40;;;;;;;13.05;8.00;;;;;;;3.60;67.22;99908.78;1716641;83;21166;-64
2022/03/09 02:41:08;;;;;;;13.80;8.65;;;;;;;3.58;67.65;99911.96;1716687;83;21098;-64
2022/03/09 02:43:36;;;;;;;12.33;7.80;;;;;;;3.54;68.29;99916.59;1716423;83;21560;-72
2022/03/09 02:46:03;;;;;;;11.70;8.43;;;;;;;3.53;68.94;99916.75;1715352;83;21038;-64
2022/03/09 02:48:30;;;;;;;10.98;7.58;;;;;;;3.63;68.81;99915.70;1716847;83;21569;-63
2022/03/09 02:50:57;;;;;;;11.48;7.35;;;;;;;3.73;67.33;99914.36;1716942;83;21512;-65
2022/03/09 02:53:26;;;;;;;12.63;7.83;;;;;;;3.57;67.52;99918.08;1716817;83;20980;-66
2022/03/09 02:55:54;;;;;;;12.58;7.15;;;;;;;3.69;66.67;99914.81;1708301;83;21035;-66
2022/03/09 02:58:21;;;;;;;12.05;7.50;;;;;;;3.48;67.34;99916.36;1716902;83;20988;-72
2022/03/09 03:00:49;;;;;;;11.75;7.80;;;;;;;3.51;68.12;99920.75;1717282;83;21011;-64
2022/03/09 03:03:17;;;;;;;10.35;6.72;;;;;;;3.58;67.93;99920.98;1705651;83;21160;-65
2022/03/09 03:05:44;;;;;;;11.63;7.53;;;;;;;3.49;68.72;99917.52;1710646;83;21483;-65
2022/03/09 03:08:13;;;;;;;12.53;7.95;;;;;;;3.51;68.29;99918.66;1711574;83;21080;-66
2022/03/09 03:10:42;;;;;;;12.98;8.23;;;;;;;3.58;68.65;99922.27;1694310;83;21016;-65
2022/03/09 03:13:10;;;;;;;14.23;8.70;;;;;;;3.54;68.94;99917.08;1715631;83;21624;-65
2022/03/09 03:15:39;;;;;;;13.90;8.73;;;;;;;3.66;68.08;99920.58;1717166;83;21651;-68
2022/03/09 03:18:07;;;;;;;15.13;8.75;;;;;;;3.45;68.88;99921.34;1716837;83;20980;-64
2022/03/09 03:20:34;;;;;;;15.75;9.43;;;;;;;3.54;69.03;99919.17;1716927;83;21095;-68
2022/03/09 03:23:02;;;;;;;14.13;8.98;;;;;;;3.55;68.59;99911.77;1708816;83;21495;-65
2022/03/09 03:25:30;;;;;;;12.35;8.60;;;;;;;3.62;68.45;99914.58;1717443;83;21134;-64
2022/03/09 03:27:57;;;;;;;14.33;8.95;;;;;;;3.44;69.39;99913.27;1716243;83;21320;-64
2022/03/09 03:30:25;;;;;;;14.63;9.08;;;;;;;3.53;69.37;99914.98;1716713;83;21039;-66
2022/03/09 03:32:53;;;;;;;15.18;9.48;;;;;;;3.57;69.54;99915.50;1717288;83;21050;-65
2022/03/09 03:35:20;;;;;;;17.05;9.48;;;;;;;3.68;69.12;99916.58;1717295;83;20928;-66
2022/03/09 03:37:50;;;;;;;14.53;9.05;;;;;;;3.66;69.34;99918.48;1716084;83;20885;-64
2022/03/09 03:40:17;;;;;;;15.60;9.68;;;;;;;3.62;69.77;99908.94;1689549;84;21197;-71
2022/03/09 03:42:44;;;;;;;14.65;10.00;;;;;;;3.72;69.37;99916.62;1710602;83;21114;-64
2022/03/09 03:45:13;;;;;;;14.80;9.45;;;;;;;3.70;69.56;99912.08;1717033;83;21903;-66
2022/03/09 03:47:40;;;;;;;12.95;8.43;;;;;;;3.72;69.14;99909.37;1717188;83;22266;-68
2022/03/09 03:50:08;;;;;;;12.28;8.30;;;;;;;3.89;68.28;99900.80;1716734;83;20956;-65
2022/03/09 03:52:36;;;;;;;12.95;8.43;;;;;;;3.82;68.28;99897.19;1716442;83;22329;-72
2022/03/09 03:55:05;;;;;;;14.55;8.50;;;;;;;3.79;69.28;99911.66;1716916;83;21157;-65
2022/03/09 03:57:32;;;;;;;12.53;8.45;;;;;;;3.76;70.53;99910.69;1717396;83;21414;-65
2022/03/09 04:00:00;;;;;;;11.88;7.17;;;;;;;3.88;71.13;99906.44;1716240;83;21031;-64
2022/03/09 04:02:28;;;;;;;11.50;8.15;;;;;;;3.96;71.13;99903.13;1714500;79;22183;-73
2022/03/09 04:04:55;;;;;;;10.98;7.70;;;;;;;4.01;71.14;99909.11;1744101;81;21240;-66
2022/03/09 04:07:22;;;;;;;11.80;7.80;;;;;;;4.08;71.23;99908.37;1744561;82;20997;-65
2022/03/09 04:09:51;;;;;;;14.47;8.15;;;;;;;4.14;70.58;99912.14;1744654;82;20899;-72
2022/03/09 04:12:20;;;;;;;11.00;7.47;;;;;;;4.22;70.17;99915.25;1723700;82;21088;-70
2022/03/09 04:14:47;;;;;;;11.15;8.13;;;;;;;4.35;68.47;99906.62;1743929;82;20943;-66
2022/03/09 04:17:15;;;;;;;11.65;7.67;;;;;;;4.24;68.38;99910.73;1737455;82;21229;-65
2022/03/09 04:19:43;;;;;;;11.10;6.85;;;;;;;4.22;68.53;99910.91;1738548;82;21472;-67
2022/03/09 04:22:11;;;;;;;11.70;7.37;;;;;;;4.45;67.91;99913.80;1737221;81;21477;-65
2022/03/09 04:24:38;;;;;;;13.50;7.97;;;;;;;4.37;68.40;99909.39;1743543;82;21175;-74
2022/03/09 04:27:07;;;;;;;13.53;7.80;;;;;;;4.25;69.90;99914.96;1732810;82;21097;-65
2022/03/09 04:29:34;;;;;;;14.83;7.65;;;;;;;4.39;70.08;99915.23;1723391;82;21185;-66
2022/03/09 04:32:01;;;;;;;15.90;8.08;;;;;;;4.61;69.22;99916.47;1741245;82;20919;-67
2022/03/09 04:34:29;;;;;;;13.55;7.87;;;;;;;4.69;69.48;99918.77;1733311;82;20997;-73
2022/03/09 04:36:57;;;;;;;13.15;7.85;;;;;;;4.91;70.06;99914.36;1730622;81;21009;-63
2022/03/09 04:39:24;;;;;;;11.90;7.70;;;;;;;4.98;69.43;99917.95;1738587;81;21046;-63
2022/03/09 04:41:52;;;;;;;11.50;7.45;;;;;;;5.20;70.34;99913.20;1743834;81;21824;-65
2022/03/09 04:44:19;;;;;;;11.38;7.40;;;;;;;5.48;70.37;99911.16;1743790;81;21551;-75
2022/03/09 04:46:47;;;;;;;10.63;7.25;;;;;;;5.84;69.19;99907.84;1735824;82;21085;-64
2022/03/09 04:49:15;;;;;;;11.38;7.25;;;;;;;6.31;67.52;99913.67;1725980;82;21172;-69
2022/03/09 04:51:43;;;;;;;10.70;7.37;;;;;;;6.42;65.04;99912.03;1736625;82;21531;-63
2022/03/09 04:54:10;;;;;;;10.28;6.65;;;;;;;6.54;64.11;99915.09;1737313;82;21828;-73
2022/03/09 04:56:38;;;;;;;11.45;6.78;;;;;;;6.37;62.51;99910.44;1737243;82;22365;-72
2022/03/09 04:59:05;;;;;;;12.00;7.67;;;;;;;6.26;61.81;99919.34;1738870;82;21151;-64
2022/03/09 05:01:34;;;;;;;12.33;7.17;;;;;;;6.31;60.23;99922.73;1731542;82;20930;-64
2022/03/09 05:04:01;;;;;;;14.87;8.60;;;;;;;6.30;58.74;99916.74;1744037;82;21053;-76
2022/03/09 05:06:30;;;;;;;11.05;7.10;;;;;;;6.38;57.27;99920.30;1727105;82;20958;-77
2022/03/09 05:08:58;;;;;;;15.68;7.60;;;;;;;6.24;56.46;99919.97;1728692;81;21029;-66
2022/03/09 05:11:25;;;;;;;12.93;7.58;;;;;;;6.17;55.65;99916.42;1740234;82;21595;-66
2022/03/09 05:13:54;;;;;;;11.15;7.40;;;;;;;6.06;55.22;99920.62;1738941;82;21540;-67
2022/03/09 05:16:22;;;;;;;13.98;8.58;;;;;;;5.95;55.47;99929.54;1743678;82;20986;-65
2022/03/09 05:18:50;;;;;;;12.25;7.95;;;;;;;5.94;55.74;99927.09;1743730;82;22436;-67
2022/03/09 05:21:17;;;;;;;11.65;7.47;;;;;;;5.95;56.21;99932.13;1740420;82;21081;-62
2022/03/09 05:23:45;;;;;;;10.58;7.50;;;;;;;6.08;56.64;99929.05;1730512;82;21649;-64
2022/03/09 05:26:12;;;;;;;11.57;6.87;;;;;;;6.29;56.35;99936.33;1725924;82;21057;-70
2022/03/09 05:28:41;;;;;;;11.00;7.12;;;;;;;6.34;56.22;99939.23;1721548;82;21136;-66
2022/03/09 05:31:08;;;;;;;14.43;8.68;;;;;;;6.46;56.15;99942.30;1724636;82;22420;-67
2022/03/09 05:33:37;;;;;;;17.80;9.88;;;;;;;6.68;55.53;99944.69;1727515;82;21024;-63
2022/03/09 05:36:05;;;;;;;14.55;10.00;;;;;;;6.74;56.05;99947.44;1723166;82;20966;-65
2022/03/09 05:38:32;;;;;;;14.83;10.72;;;;;;;6.84;56.05;99951.12;1721428;81;21010;-78
2022/03/09 05:41:00;;;;;;;13.95;9.33;;;;;;;7.17;56.45;99951.02;1724139;82;21088;-69
2022/03/09 05:43:27;;;;;;;14.20;9.30;;;;;;;7.31;56.34;99956.77;1721984;82;21231;-69
2022/03/09 05:45:55;;;;;;;15.10;9.63;;;;;;;7.64;55.77;99954.02;1720716;82;21117;-63
2022/03/09 05:48:22;;;;;;;14.87;9.68;;;;;;;7.86;55.37;99950.64;1722099;82;20985;-66
2022/03/09 05:50:49;;;;;;;13.45;8.88;;;;;;;8.09;55.51;99949.83;1721872;82;21018;-74
2022/03/09 05:53:18;;;;;;;14.18;9.70;;;;;;;8.50;54.61;99949.02;1721602;82;20993;-60
2022/03/09 05:55:46;;;;;;;12.43;8.55;;;;;;;8.60;54.47;99944.86;1723585;82;21155;-67
2022/03/09 05:58:13;;;;;;;12.63;8.93;;;;;;;8.93;53.39;99948.73;1719583;82;21484;-62
2022/03/09 06:00:42;;;;;;;13.80;9.30;;;;;;;9.19;51.87;99953.96;1719322;83;21658;-62
2022/03/09 06:03:09;;;;;;;11.95;8.33;;;;;;;9.29;50.45;99947.20;1718167;82;21170;-63
2022/03/09 06:05:36;;;;;;;13.50;8.60;;;;;;;9.36;49.76;99948.08;1715775;82;20951;-62
2022/03/09 06:08:04;;;;;;;11.53;8.75;;;;;;;9.47;49.70;99953.62;1715499;82;21774;-71
2022/03/09 06:10:32;;;;;;;11.38;8.20;;;;;;;9.73;48.90;99948.36;1712712;82;21626;-79
2022/03/09 06:13:00;;;;;;;10.95;8.60;;;;;;;9.97;48.45;99948.02;1711645;82;22411;-62
2022/03/09 06:15:28;;;;;;;11.95;9.00;;;;;;;10.36;47.99;99949.86;1686834;83;21032;-63
2022/03/09 06:17:57;;;;;;;11.65;8.63;;;;;;;10.56;47.32;99945.59;1684612;83;21108;-70
2022/03/09 06:20:25;;;;;;;12.95;8.90;;;;;;;10.83;46.84;99942.64;1720425;82;21130;-74
2022/03/09 06:22:53;;;;;;;11.83;8.73;;;;;;;11.34;45.91;99938.38;1694974;83;21176;-65
2022/03/09 06:25:21;;;;;;;10.83;8.13;;;;;;;11.58;44.71;99940.95;1694278;83;21189;-68
2022/03/09 06:27:50;;;;;;;10.73;7.77;;;;;;;12.00;44.77;99938.23;1692751;83;21462;-74
2022/03/09 06:30:17;;;;;;;12.17;8.53;;;;;;;12.87;41.91;99931.41;1693611;84;21726;-73
2022/03/09 06:32:46;;;;;;;11.50;8.60;;;;;;;12.99;41.12;99928.95;1695854;83;21439;-65
2022/03/09 06:35:14;;;;;;;11.60;8.93;;;;;;;13.07;41.28;99930.05;1693199;83;21751;-67
2022/03/09 06:37:41;;;;;;;11.50;8.40;;;;;;;13.18;40.25;99929.89;1694386;83;21275;-65
2022/03/09 06:40:11;;;;;;;9.47;8.00;;;;;;;13.39;39.51;99930.14;1694323;83;21343;-76
2022/03/09 06:42:43;;;;;;;11.10;9.00;;;;;;;13.55;38.61;99933.57;1692447;83;21459;-62
2022/03/09 06:45:11;;;;;;;10.47;8.37;;;;;;;13.29;38.09;99930.58;1695076;83;21250;-62
2022/03/09 06:47:38;;;;;;;11.40;9.10;;;;;;;13.29;38.09;99930.58;1693792;83;21389;-62
2022/03/09 06:50:08;;;;;;;10.47;8.60;;;;;;;13.25;38.08;99935.14;1694836;83;22059;-69
2022/03/09 06:52:37;;;;;;;10.78;8.48;;;;;;;13.07;37.87;99935.80;1692119;83;22241;-65
2022/03/09 06:55:07;;;;;;;13.00;10.63;;;;;;;12.74;37.51;99932.77;1696581;83;21074;-65
2022/03/09 06:57:35;;;;;;;11.30;9.03;;;;;;;12.38;37.73;99937.93;1696352;83;21314;-65
2022/03/09 07:00:05;;;;;;;11.43;9.47;;;;;;;11.88;38.61;99934.91;1695373;83;21234;-80
2022/03/09 07:02:33;;;;;;;12.73;9.70;;;;;;;11.64;39.16;99934.15;1687804;83;22375;-68
2022/03/09 07:05:01;;;;;;;10.97;8.70;;;;;;;11.54;39.83;99943.65;1693237;83;21762;-66
2022/03/09 07:07:30;;;;;;;12.80;9.25;;;;;;;11.59;39.80;99945.66;1693353;84;21343;-72
2022/03/09 07:09:57;;;;;;;13.33;9.37;;;;;;;11.47;39.96;99947.24;1697535;83;21172;-77
2022/03/09 07:12:25;;;;;;;11.27;9.13;;;;;;;11.58;39.56;99949.28;1699819;83;21366;-76
2022/03/09 07:14:53;;;;;;;12.98;9.28;;;;;;;11.25;39.25;99946.08;1696952;83;21298;-65
2022/03/09 07:17:21;;;;;;;14.25;10.10;;;;;;;10.87;39.92;99941.77;1693512;84;21086;-64
2022/03/09 07:19:48;;;;;;;12.33;9.50;;;;;;;10.60;40.49;99942.11;1690482;84;21019;-65
2022/03/09 07:22:16;;;;;;;13.90;10.28;;;;;;;10.58;41.18;99943.61;1690265;83;22265;-64
2022/03/09 07:24:43;;;;;;;14.47;10.32;;;;;;;10.61;41.30;99943.73;1692039;84;21030;-68
2022/03/09 07:27:11;;;;;;;11.88;9.78;;;;;;;10.77;41.08;99938.22;1689764;83;21068;-66
2022/03/09 07:29:38;;;;;;;13.25;10.25;;;;;;;10.70;41.02;99936.06;1689790;83;21524;-65
2022/03/09 07:32:08;;;;;;;11.88;9.48;;;;;;;10.60;41.16;99936.39;1690944;83;21118;-66
2022/03/09 07:34:36;;;;;;;13.38;9.70;;;;;;;10.42;41.39;99936.89;1689686;84;21400;-62
2022/03/09 07:37:04;;;;;;;15.05;9.53;;;;;;;10.33;41.31;99930.70;1688538;83;21081;-64
2022/03/09 07:39:44;;;;;;;11.40;8.65;;;;;;;9.97;41.33;99940.20;1715532;82;21047;-68
2022/03/09 07:42:11;;;;;;;11.78;8.88;;;;;;;9.46;42.16;99945.48;1707956;82;21060;-70
2022/03/09 07:44:38;;;;;;;13.65;9.98;;;;;;;9.27;42.85;99949.95;1705080;82;21109;-63
2022/03/09 07:47:07;;;;;;;11.10;9.05;;;;;;;9.45;42.81;99949.08;1708804;82;21823;-66
2022/03/09 07:49:34;;;;;;;11.78;8.73;;;;;;;9.21;43.45;99949.41;1682837;84;21102;-68
2022/03/09 07:52:03;;;;;;;14.55;10.43;;;;;;;9.03;44.02;99941.97;1682242;84;21186;-63
2022/03/09 07:54:30;;;;;;;14.63;10.58;;;;;;;8.77;44.25;99942.42;1707240;82;21575;-66
2022/03/09 07:56:58;;;;;;;13.88;9.83;;;;;;;8.58;45.09;99946.84;1705386;82;21507;-65
2022/03/09 07:59:27;;;;;;;12.73;9.80;;;;;;;8.52;45.60;99944.44;1704485;83;21187;-78
2022/03/09 08:01:55;;;;;;;13.88;10.58;;;;;;;8.43;46.23;99941.13;1704627;83;20997;-66
2022/03/09 08:04:23;;;;;;;13.83;10.28;;;;;;;8.43;46.58;99948.11;1707589;82;21017;-79
2022/03/09 08:06:51;;;;;;;13.72;9.43;;;;;;;8.46;47.42;99937.38;1705011;82;21096;-63
2022/03/09 08:09:18;;;;;;;12.73;9.40;;;;;;;8.62;47.59;99944.20;1678701;84;21031;-64
2022/03/09 08:11:46;;;;;;;13.13;8.68;;;;;;;8.67;47.77;99944.46;1703724;82;21868;-67
2022/03/09 08:14:13;;;;;;;11.10;8.05;;;;;;;8.82;47.96;99944.47;1709456;82;21774;-66
2022/03/09 08:16:42;;;;;;;12.28;9.80;;;;;;;8.77;47.60;99941.92;1711066;82;20955;-63
2022/03/09 08:19:10;;;;;;;13.15;9.50;;;;;;;8.86;47.87;99942.63;1709294;82;21493;-72
2022/03/09 08:21:37;;;;;;;13.65;10.05;;;;;;;8.75;48.11;99945.67;1711683;82;21010;-64
2022/03/09 08:24:06;;;;;;;13.38;9.90;;;;;;;8.69;49.09;99942.50;1704762;82;22234;-64
2022/03/09 08:26:33;;;;;;;14.43;9.88;;;;;;;8.74;49.50;99945.36;1702433;82;21551;-63
2022/03/09 08:29:02;;;;;;;12.98;8.75;;;;;;;9.03;50.71;99947.66;1706128;82;21204;-69
2022/03/09 08:31:31;;;;;;;13.43;9.68;;;;;;;9.06;50.71;99948.11;1700803;82;21129;-72
2022/03/09 08:33:59;;;;;;;12.45;9.40;;;;;;;9.25;50.62;99945.45;1702946;82;21117;-64
2022/03/09 08:36:27;;;;;;;12.58;9.03;;;;;;;9.29;50.84;99940.19;1699331;83;22528;-65
2022/03/09 08:38:55;;;;;;;11.25;8.70;;;;;;;9.12;51.81;99941.37;1689849;82;21027;-62
2022/03/09 08:41:25;;;;;;;12.07;9.35;;;;;;;9.28;50.63;99942.48;1691373;82;21505;-64
2022/03/09 08:43:52;;;;;;;11.22;8.30;;;;;;;9.19;50.73;99940.46;1690907;82;21102;-64
2022/03/09 08:46:20;;;;;;;11.22;8.90;;;;;;;9.13;50.83;99943.81;1697181;82;21597;-65
2022/03/09 08:48:48;;;;;;;13.80;8.93;;;;;;;9.08;50.34;99943.52;1696583;82;22537;-61
2022/03/09 08:51:20;;;;;;;9.30;7.55;;;;;;;9.10;51.00;99949.36;1692492;83;21073;-73
2022/03/09 08:53:46;;;;;;;9.13;7.08;;;;;;;9.09;49.90;99940.42;1698153;82;21588;-68
2022/03/09 08:56:14;;;;;;;9.65;7.37;;;;;;;8.71;51.31;99953.52;1698044;83;21126;-64
2022/03/09 08:58:42;;;;;;;10.50;8.00;;;;;;;8.58;52.33;99950.23;1694162;82;21113;-62
2022/03/09 09:01:10;;;;;;;9.13;7.45;;;;;;;8.90;53.03;99944.38;1682189;84;22128;-61
2022/03/09 09:03:38;;;;;;;7.85;6.72;;;;;;;8.91;52.90;99951.22;1679853;83;21082;-65
2022/03/09 09:06:06;;;;;;;10.93;7.65;;;;;;;7.98;55.47;99947.95;1683482;84;21031;-67
2022/03/09 09:08:35;;;;;;;8.55;6.65;;;;;;;7.88;59.84;99957.78;1683820;84;20932;-66
2022/03/09 09:11:02;;;;;;;9.95;7.37;;;;;;;8.10;59.08;99956.63;1706005;82;21123;-69
2022/03/09 09:13:31;;;;;;;9.20;7.15;;;;;;;7.92;62.22;99961.64;1676696;83;21023;-64
2022/03/09 09:15:59;;;;;;;8.93;6.60;;;;;;;6.78;75.63;99963.42;1677260;84;21092;-67
2022/03/09 09:18:26;;;;;;;9.60;7.33;;;;;;;7.15;76.03;99962.03;1702581;81;21071;-64
2022/03/09 09:20:56;;;;;;;9.25;7.42;;;;;;;6.75;80.40;99965.08;1701106;83;21147;-63
2022/03/09 09:23:25;;;;;;;9.58;7.42;;;;;;;7.82;70.86;99963.64;1678709;84;21557;-66
2022/03/09 09:25:53;;;;;;;11.35;7.62;;;;;;;6.85;71.87;99973.45;1685797;83;21134;-68
2022/03/09 09:28:20;;;;;;;9.63;7.85;;;;;;;6.47;80.63;99972.38;1697069;82;21114;-69
2022/03/09 09:30:49;;;;;;;10.25;8.35;;;;;;;6.93;80.05;99974.75;1697404;83;21610;-67
2022/03/09 09:33:17;;;;;;;10.13;8.58;;;;;;;7.23;73.04;99978.84;1701251;83;21661;-65
2022/03/09 09:35:45;;;;;;;12.45;9.33;;;;;;;7.30;71.03;99971.52;1708228;82;21023;-63
2022/03/09 09:38:14;;;;;;;11.05;8.43;;;;;;;7.15;73.67;99969.81;1705245;82;21277;-64
2022/03/09 09:40:45;;;;;;;11.43;9.08;;;;;;;6.97;79.15;99973.44;1709696;82;21102;-65
2022/03/09 09:43:16;;;;;;;10.30;8.80;;;;;;;7.05;85.30;99978.59;1709053;82;20995;-66
2022/03/09 09:45:46;;;;;;;11.97;8.78;;;;;;;7.00;88.36;99980.86;1704771;82;21038;-72
2022/03/09 09:48:13;;;;;;;11.95;9.23;;;;;;;7.04;88.11;99983.93;1702404;82;21086;-72
2022/03/09 09:50:42;;;;;;;11.70;8.85;;;;;;;7.01;89.28;99976.52;1701565;82;21131;-77
2022/03/09 09:53:12;;;;;;;10.72;8.30;;;;;;;7.07;88.35;99980.52;1701866;82;21141;-65
2022/03/09 09:55:40;;;;;;;11.38;8.85;;;;;;;6.98;87.20;99976.34;1701498;82;21108;-68
2022/03/09 09:58:09;;;;;;;11.28;9.28;;;;;;;7.01;83.78;99981.20;1693392;82;21159;-68
2022/03/09 10:00:37;;;;;;;11.30;9.15;;;;;;;6.71;83.00;99981.44;1702556;82;21689;-73
2022/03/09 10:03:05;;;;;;;12.07;9.50;;;;;;;6.83;83.13;99985.78;1704879;82;21262;-72
2022/03/09 10:05:33;;;;;;;12.50;9.78;;;;;;;6.98;81.25;99990.60;1704652;82;21006;-68
2022/03/09 10:08:08;;;;;;;11.25;8.30;;;;;;;7.09;80.10;99985.55;1707435;82;21059;-67
2022/03/09 10:10:40;;;;;;;14.10;9.58;;;;;;;7.17;78.74;99988.11;1699714;82;21303;-71
2022/03/09 10:13:30;;;;;;;12.20;10.18;;;;;;;7.13;78.00;99991.22;1704870;82;21019;-67
2022/03/09 10:16:20;;;;;;;12.75;10.48;;;;;;;7.16;77.09;99994.28;1706697;82;21007;-71
2022/03/09 10:18:56;;;;;;;13.58;10.45;;;;;;;7.15;74.38;99987.95;1705124;82;21284;-71
2022/03/09 10:21:29;;;;;;;13.55;9.68;;;;;;;6.88;75.41;99982.69;1700761;82;21494;-70
2022/03/09 10:24:06;;;;;;;10.03;7.90;;;;;;;7.00;75.98;99990.42;1676855;85;21525;-69
2022/03/09 10:26:44;;;;;;;10.18;7.67;;;;;;;7.12;73.97;99994.76;1694142;83;21065;-69
2022/03/09 10:29:19;;;;;;;10.30;7.70;;;;;;;7.09;71.41;99986.05;1674267;83;21120;-70
2022/03/09 10:31:48;;;;;;;10.10;7.42;;;;;;;7.01;70.63;99992.87;1705078;83;21493;-68
2022/03/09 10:34:20;;;;;;;10.23;6.85;;;;;;;7.03;71.42;99996.09;1705984;82;21114;-69
2022/03/09 10:37:04;;;;;;;9.53;7.17;;;;;;;7.00;71.95;99996.41;1693536;83;21920;-72
2022/03/09 10:39:42;;;;;;;10.45;7.20;;;;;;;7.00;71.84;100007.27;1698833;82;21099;-67
2022/03/09 10:42:25;;;;;;;9.95;6.62;;;;;;;6.97;72.69;100007.13;1681635;84;21770;-68
2022/03/09 10:44:54;;;;;;;9.20;6.70;;;;;;;6.98;74.14;100010.03;1697234;82;21522;-68
2022/03/09 10:47:42;;;;;;;8.78;6.83;;;;;;;7.00;75.59;100000.30;1704127;82;21010;-65
2022/03/09 10:50:30;;;;;;;10.28;7.40;;;;;;;7.00;74.45;100012.45;1702609;82;21173;-69
2022/03/09 10:53:00;;;;;;;11.83;7.45;;;;;;;6.97;76.48;100010.19;1702520;82;21296;-67
2022/03/09 10:55:35;;;;;;;10.03;7.65;;;;;;;7.11;75.46;100009.50;1699796;83;21042;-68
2022/03/09 10:58:19;;;;;;;9.33;6.03;;;;;;;7.24;76.42;100014.19;1702332;82;21644;-69
2022/03/09 11:00:52;;;;;;;10.18;7.55;;;;;;;7.33;75.46;100017.06;1701622;82;21127;-69
2022/03/09 11:03:25;;;;;;;9.03;6.62;;;;;;;7.38;72.55;100019.95;1700978;83;21115;-72
2022/03/09 11:05:58;;;;;;;8.85;6.47;;;;;;;7.24;74.02;100014.19;1665377;84;21093;-69
2022/03/09 11:08:34;;;;;;;7.90;6.37;;;;;;;7.16;74.05;100015.02;1699295;82;22374;-68
2022/03/09 11:11:02;;;;;;;9.25;7.50;;;;;;;7.16;75.53;100019.37;1678615;83;21075;-69
2022/03/09 11:13:36;;;;;;;8.68;6.15;;;;;;;7.02;77.49;100022.98;1675492;84;20999;-68
2022/03/09 11:16:07;;;;;;;9.18;7.15;;;;;;;7.06;77.80;100015.20;1671991;83;21007;-67
2022/03/09 11:18:34;;;;;;;8.53;6.47;;;;;;;7.08;80.25;100020.20;1682886;83;21062;-67
2022/03/09 11:21:08;;;;;;;10.75;7.40;;;;;;;7.13;79.94;100012.75;1660005;83;21193;-68
2022/03/09 11:23:39;;;;;;;6.72;5.08;;;;;;;7.07;78.55;100021.18;1682559;83;21011;-66
2022/03/09 11:26:10;;;;;;;7.72;5.10;;;;;;;7.14;75.91;100016.15;1683223;82;20912;-66
2022/03/09 11:28:39;;;;;;;8.28;5.45;;;;;;;6.89;74.49;100022.67;1705071;83;22151;-65
2022/03/09 11:31:12;;;;;;;9.10;5.30;;;;;;;6.87;74.20;100023.83;1688453;83;21043;-63
2022/03/09 11:33:49;;;;;;;8.55;5.92;;;;;;;6.73;74.55;100024.00;1684937;84;21911;-66
2022/03/09 11:36:30;;;;;;;7.80;5.50;;;;;;;7.16;72.43;100029.28;1684860;84;21043;-67
2022/03/09 11:39:13;;;;;;;7.97;5.30;;;;;;;7.17;69.44;100021.01;1682868;83;21122;-67
2022/03/09 11:41:41;;;;;;;;;;;;;;;7.13;70.35;100026.20;1686005;84;21106;-65